createdAt,value
2022-08-25T00:01:46.199Z,22.00
2022-08-25T00:04:16.184Z,21.90
2022-08-25T00:06:46.001Z,21.80
2022-08-25T00:09:17.601Z,21.80
2022-08-25T00:11:45.244Z,21.90
2022-08-25T00:14:15.923Z,21.90
2022-08-25T00:16:43.461Z,22.00
2022-08-25T00:19:20.535Z,21.90
2022-08-25T00:21:47.666Z,21.80
2022-08-25T00:24:17.214Z,21.80
2022-08-25T00:26:49.264Z,21.70
2022-08-25T00:29:16.761Z,21.80
2022-08-25T00:31:44.428Z,21.90
2022-08-25T00:34:19.041Z,21.90
2022-08-25T00:36:47.195Z,21.80
2022-08-25T00:39:14.333Z,21.80
2022-08-25T00:41:43.253Z,21.80
2022-08-25T00:44:13.030Z,21.70
2022-08-25T00:46:49.454Z,21.60
2022-08-25T00:49:25.342Z,21.40
2022-08-25T00:51:59.097Z,21.30
2022-08-25T00:54:31.452Z,21.20
2022-08-25T00:57:00.090Z,21.10
2022-08-25T00:59:27.827Z,21.10
2022-08-25T01:01:56.095Z,21.10
2022-08-25T01:04:23.821Z,21.10
2022-08-25T01:06:50.809Z,21.10
2022-08-25T01:09:19.302Z,21.10
2022-08-25T01:11:47.308Z,21.10
2022-08-25T01:14:18.401Z,21.00
2022-08-25T01:16:45.678Z,21.00
2022-08-25T01:19:16.042Z,21.00
2022-08-25T01:21:48.083Z,20.90
2022-08-25T01:24:39.726Z,20.90
2022-08-25T01:27:07.641Z,20.90
2022-08-25T01:29:36.070Z,20.90
2022-08-25T01:32:06.855Z,20.80
2022-08-25T01:34:36.380Z,20.90
2022-08-25T01:37:04.077Z,20.70
2022-08-25T01:39:34.164Z,20.80
2022-08-25T01:42:17.925Z,20.90
2022-08-25T01:44:46.174Z,20.90
2022-08-25T01:47:14.438Z,20.80
2022-08-25T01:49:41.314Z,20.80
2022-08-25T01:52:16.171Z,20.80
2022-08-25T01:54:43.121Z,20.70
2022-08-25T01:57:09.969Z,20.70
2022-08-25T01:59:36.944Z,20.70
2022-08-25T02:02:04.865Z,20.60
2022-08-25T02:04:32.680Z,20.50
2022-08-25T02:07:04.169Z,20.50
2022-08-25T02:09:31.587Z,20.60
2022-08-25T02:11:59.247Z,20.50
2022-08-25T02:14:26.284Z,20.60
2022-08-25T02:16:54.374Z,20.60
2022-08-25T02:19:24.393Z,20.60
2022-08-25T02:21:51.616Z,20.60
2022-08-25T02:24:18.889Z,20.50
2022-08-25T02:26:45.900Z,20.50
2022-08-25T02:29:12.817Z,20.50
2022-08-25T02:31:40.525Z,20.50
2022-08-25T02:34:08.958Z,20.50
2022-08-25T02:36:37.408Z,20.50
2022-08-25T02:39:06.702Z,20.40
2022-08-25T02:41:34.076Z,20.40
2022-08-25T02:44:02.656Z,20.50
2022-08-25T02:46:29.807Z,20.40
2022-08-25T02:48:57.153Z,20.40
2022-08-25T02:51:25.546Z,20.40
2022-08-25T02:53:52.362Z,20.40
2022-08-25T02:56:19.997Z,20.40
2022-08-25T02:58:47.668Z,20.50
2022-08-25T03:01:15.664Z,20.50
2022-08-25T03:03:44.898Z,20.60
2022-08-25T03:06:19.963Z,20.50
2022-08-25T03:08:47.119Z,20.40
2022-08-25T03:11:13.964Z,20.40
2022-08-25T03:13:41.000Z,20.40
2022-08-25T03:16:11.006Z,20.40
2022-08-25T03:18:39.994Z,20.50
2022-08-25T03:21:07.236Z,20.40
2022-08-25T03:23:34.479Z,20.50
2022-08-25T03:26:19.917Z,20.60
2022-08-25T03:28:46.862Z,20.70
2022-08-25T03:31:13.802Z,20.60
2022-08-25T03:33:40.972Z,20.60
2022-08-25T03:36:09.015Z,20.70
2022-08-25T03:38:38.305Z,20.80
2022-08-25T03:41:16.388Z,20.90
2022-08-25T03:43:43.571Z,20.90
2022-08-25T03:46:16.771Z,20.90
2022-08-25T03:48:43.635Z,21.10
2022-08-25T03:51:10.498Z,21.10
2022-08-25T03:53:37.590Z,21.20
2022-08-25T03:56:04.477Z,21.20
2022-08-25T03:58:31.298Z,21.30
2022-08-25T04:01:00.549Z,21.50
2022-08-25T04:03:27.442Z,22.20
2022-08-25T04:05:54.294Z,23.10
2022-08-25T04:08:23.257Z,24.20
2022-08-25T04:10:50.153Z,25.20
2022-08-25T04:13:18.652Z,25.90
2022-08-25T04:15:45.529Z,26.50
2022-08-25T04:18:13.303Z,27.00
2022-08-25T04:20:46.405Z,27.40
2022-08-25T04:23:13.625Z,27.50
2022-08-25T04:25:46.264Z,28.00
2022-08-25T04:28:13.235Z,28.40
2022-08-25T04:30:42.850Z,28.20
2022-08-25T04:33:09.691Z,28.50
2022-08-25T04:35:36.553Z,28.70
2022-08-25T04:38:05.378Z,28.60
2022-08-25T04:40:32.343Z,28.80
2022-08-25T04:42:59.768Z,28.80
2022-08-25T04:45:26.736Z,29.00
2022-08-25T04:47:55.123Z,29.30
2022-08-25T04:50:22.040Z,29.80
2022-08-25T04:52:49.519Z,29.90
2022-08-25T04:55:16.444Z,29.90
2022-08-25T04:57:43.417Z,29.90
2022-08-25T05:00:11.174Z,30.30
2022-08-25T05:02:38.015Z,30.10
2022-08-25T05:05:06.559Z,30.00
2022-08-25T05:07:33.643Z,30.30
2022-08-25T05:10:00.458Z,30.20
2022-08-25T05:12:27.311Z,30.30
2022-08-25T05:14:56.044Z,30.20
2022-08-25T05:17:22.799Z,29.90
2022-08-25T05:19:49.585Z,29.80
2022-08-25T05:22:16.392Z,30.00
2022-08-25T05:24:43.247Z,29.90
2022-08-25T05:27:10.333Z,29.70
2022-08-25T05:29:37.132Z,29.80
2022-08-25T05:32:04.240Z,30.10
2022-08-25T05:34:31.199Z,30.50
2022-08-25T05:37:00.191Z,30.20
2022-08-25T05:39:27.231Z,30.40
2022-08-25T05:41:54.193Z,30.60
2022-08-25T05:44:21.574Z,30.80
2022-08-25T05:46:48.641Z,30.50
2022-08-25T05:49:15.462Z,30.90
2022-08-25T05:51:42.348Z,31.00
2022-08-25T05:54:09.156Z,30.90
2022-08-25T05:56:36.089Z,30.80
2022-08-25T05:59:07.310Z,30.80
2022-08-25T06:01:54.726Z,31.00
2022-08-25T06:04:22.646Z,30.90
2022-08-25T06:06:53.378Z,31.10
2022-08-25T06:09:20.740Z,31.40
2022-08-25T06:11:52.836Z,31.60
2022-08-25T06:14:21.452Z,31.40
2022-08-25T06:16:51.482Z,31.70
2022-08-25T06:19:18.321Z,31.70
2022-08-25T06:21:45.101Z,31.20
2022-08-25T06:24:15.372Z,30.60
2022-08-25T06:26:43.954Z,30.60
2022-08-25T06:29:10.830Z,31.40
2022-08-25T06:31:37.800Z,31.80
2022-08-25T06:34:04.751Z,31.50
2022-08-25T06:36:31.901Z,31.80
2022-08-25T06:38:58.712Z,31.90
2022-08-25T06:41:25.660Z,32.10
2022-08-25T06:44:05.279Z,32.00
2022-08-25T06:46:35.828Z,31.80
2022-08-25T06:49:04.919Z,31.60
2022-08-25T06:51:31.801Z,31.30
2022-08-25T06:53:58.696Z,31.20
2022-08-25T06:56:25.870Z,31.60
2022-08-25T06:58:53.587Z,31.40
2022-08-25T07:01:26.303Z,31.30
2022-08-25T07:03:59.566Z,31.20
2022-08-25T07:06:28.275Z,31.30
2022-08-25T07:08:55.383Z,31.40
2022-08-25T07:11:22.527Z,31.60
2022-08-25T07:13:50.722Z,31.80
2022-08-25T07:16:20.263Z,32.00
2022-08-25T07:18:47.947Z,32.00
2022-08-25T07:21:15.154Z,32.30
2022-08-25T07:23:43.186Z,32.00
2022-08-25T07:29:32.547Z,32.40
2022-08-25T07:32:01.420Z,32.50
2022-08-25T07:34:51.892Z,32.50
2022-08-25T07:37:45.445Z,32.70
2022-08-25T07:40:10.565Z,32.70
2022-08-25T07:42:37.919Z,32.60
2022-08-25T07:45:07.363Z,32.80
2022-08-25T07:47:34.726Z,32.60
2022-08-25T07:50:01.861Z,32.90
2022-08-25T07:52:28.682Z,32.80
2022-08-25T07:54:55.590Z,33.00
2022-08-25T07:57:24.713Z,33.20
2022-08-25T07:59:51.760Z,33.30
2022-08-25T08:02:19.501Z,33.30
2022-08-25T08:04:51.491Z,33.10
2022-08-25T08:07:25.802Z,32.60
2022-08-25T08:10:47.901Z,32.80
2022-08-25T08:12:58.040Z,33.20
2022-08-25T08:15:25.064Z,33.10
2022-08-25T08:17:56.428Z,33.20
2022-08-25T08:20:25.625Z,33.00
2022-08-25T08:22:52.461Z,32.70
2022-08-25T08:25:21.534Z,32.80
2022-08-25T08:27:55.992Z,32.40
2022-08-25T08:30:26.191Z,32.50
2022-08-25T08:33:11.746Z,32.70
2022-08-25T08:35:41.685Z,32.20
2022-08-25T08:38:14.821Z,32.40
2022-08-25T08:41:26.053Z,32.30
2022-08-25T08:44:07.888Z,32.10
2022-08-25T08:46:47.034Z,32.30
2022-08-25T08:49:38.925Z,32.20
2022-08-25T08:52:07.567Z,32.20
2022-08-25T08:54:38.404Z,32.20
2022-08-25T08:57:23.279Z,32.50
2022-08-25T09:00:05.992Z,32.20
2022-08-25T09:02:51.876Z,32.40
2022-08-25T09:05:22.013Z,32.70
2022-08-25T09:08:05.570Z,32.80
2022-08-25T09:11:11.461Z,32.80
2022-08-25T09:14:04.457Z,32.90
2022-08-25T09:16:50.208Z,33.00
2022-08-25T09:19:35.582Z,33.00
2022-08-25T09:22:33.477Z,32.90
2022-08-25T09:25:22.104Z,33.10
2022-08-25T09:28:21.078Z,32.80
2022-08-25T09:31:04.585Z,32.80
2022-08-25T09:33:35.714Z,32.90
2022-08-25T09:36:06.332Z,32.40
2022-08-25T09:38:35.637Z,32.40
2022-08-25T09:41:03.719Z,32.20
2022-08-25T09:43:36.859Z,32.10
2022-08-25T09:46:27.797Z,32.20
2022-08-25T09:48:57.560Z,32.50
2022-08-25T09:51:29.400Z,32.50
2022-08-25T09:54:14.322Z,32.60
2022-08-25T09:56:54.816Z,32.30
2022-08-25T09:59:34.180Z,31.90
2022-08-25T10:02:24.056Z,32.30
2022-08-25T10:04:53.533Z,32.30
2022-08-25T10:07:26.639Z,32.70
2022-08-25T10:10:02.155Z,32.30
2022-08-25T10:12:44.490Z,31.90
2022-08-25T10:15:29.539Z,31.70
2022-08-25T10:18:27.631Z,32.10
2022-08-25T10:21:14.786Z,31.80
2022-08-25T10:23:55.991Z,31.60
2022-08-25T10:26:41.387Z,31.50
2022-08-25T10:29:08.111Z,31.30
2022-08-25T10:31:49.175Z,31.50
2022-08-25T10:34:23.165Z,31.70
2022-08-25T10:36:57.664Z,32.10
2022-08-25T10:39:44.614Z,32.40
2022-08-25T10:42:27.203Z,32.70
2022-08-25T10:45:32.406Z,32.90
2022-08-25T10:48:22.375Z,32.90
2022-08-25T10:51:23.633Z,31.80
2022-08-25T10:54:10.512Z,31.60
2022-08-25T10:56:53.623Z,32.30
2022-08-25T10:59:34.652Z,32.40
2022-08-25T11:02:32.198Z,32.00
2022-08-25T11:05:10.682Z,32.00
2022-08-25T11:07:45.835Z,32.20
2022-08-25T11:10:19.584Z,32.40
2022-08-25T11:12:59.361Z,32.00
2022-08-25T11:15:36.607Z,32.10
2022-08-25T11:18:13.952Z,32.30
2022-08-25T11:21:16.744Z,32.40
2022-08-25T11:24:09.148Z,32.40
2022-08-25T11:26:38.023Z,32.30
2022-08-25T11:29:16.464Z,32.30
2022-08-25T11:31:53.984Z,32.40
2022-08-25T11:34:22.421Z,32.50
2022-08-25T11:37:01.124Z,32.40
2022-08-25T11:40:00.257Z,32.10
2022-08-25T11:42:49.277Z,31.90
2022-08-25T11:45:40.366Z,32.10
2022-08-25T11:48:10.361Z,31.90
2022-08-25T11:51:01.596Z,31.60
2022-08-25T11:53:37.967Z,31.70
2022-08-25T11:56:12.608Z,32.00
2022-08-25T11:58:53.816Z,32.40
2022-08-25T12:01:39.437Z,32.80
2022-08-25T12:04:13.412Z,32.50
2022-08-25T12:07:06.951Z,32.50
2022-08-25T12:09:54.615Z,32.70
2022-08-25T12:12:36.657Z,32.40
2022-08-25T12:15:23.600Z,32.30
2022-08-25T12:18:40.088Z,32.20
2022-08-25T12:21:15.351Z,32.00
2022-08-25T12:24:08.807Z,31.80
2022-08-25T12:26:39.397Z,31.30
2022-08-25T12:29:35.370Z,30.90
2022-08-25T12:32:19.178Z,31.00
2022-08-25T12:35:13.710Z,31.60
2022-08-25T12:38:09.064Z,32.00
2022-08-25T12:41:02.557Z,31.60
2022-08-25T12:43:37.694Z,31.30
2022-08-25T12:46:20.395Z,31.10
2022-08-25T12:49:00.767Z,30.80
2022-08-25T12:51:35.349Z,30.90
2022-08-25T12:54:41.029Z,30.90
2022-08-25T12:57:41.230Z,30.80
2022-08-25T13:00:21.283Z,31.10
2022-08-25T13:03:07.363Z,31.30
2022-08-25T13:05:59.079Z,31.60
2022-08-25T13:08:33.714Z,31.70
2022-08-25T13:11:13.180Z,31.60
2022-08-25T13:13:48.052Z,31.80
2022-08-25T13:16:29.806Z,31.90
2022-08-25T13:18:59.386Z,32.00
2022-08-25T13:21:41.719Z,32.40
2022-08-25T13:24:28.052Z,32.40
2022-08-25T13:26:57.867Z,31.80
2022-08-25T13:29:29.873Z,31.70
2022-08-25T13:32:09.290Z,31.60
2022-08-25T13:34:42.821Z,31.50
2022-08-25T13:37:30.435Z,31.20
2022-08-25T13:40:18.009Z,31.00
2022-08-25T13:42:53.025Z,31.10
2022-08-25T13:45:25.513Z,31.20
2022-08-25T13:47:55.823Z,31.20
2022-08-25T13:50:26.433Z,31.40
2022-08-25T13:53:07.178Z,31.40
2022-08-25T13:55:52.225Z,31.40
2022-08-25T13:58:44.235Z,31.30
2022-08-25T14:01:48.274Z,31.50
2022-08-25T14:04:28.000Z,31.50
2022-08-25T14:07:14.934Z,31.30
2022-08-25T14:09:49.052Z,31.20
2022-08-25T14:12:37.133Z,31.00
2022-08-25T14:15:21.995Z,30.70
2022-08-25T14:18:14.062Z,30.70
2022-08-25T14:20:47.255Z,30.70
2022-08-25T14:23:19.276Z,30.80
2022-08-25T14:25:46.950Z,30.70
2022-08-25T14:28:18.823Z,30.70
2022-08-25T14:30:58.957Z,30.70
2022-08-25T14:33:38.299Z,30.60
2022-08-25T14:36:06.129Z,30.50
2022-08-25T14:38:35.223Z,30.40
2022-08-25T14:41:02.184Z,30.40
2022-08-25T14:43:31.362Z,30.50
2022-08-25T14:45:59.917Z,30.50
2022-08-25T14:48:31.871Z,30.50
2022-08-25T14:51:00.351Z,30.50
2022-08-25T14:53:28.627Z,30.60
2022-08-25T14:55:59.351Z,30.60
2022-08-25T14:58:27.121Z,30.50
2022-08-25T15:00:54.714Z,30.30
2022-08-25T15:03:36.078Z,30.20
2022-08-25T15:06:03.855Z,30.20
2022-08-25T15:08:50.149Z,30.00
2022-08-25T15:11:17.316Z,30.00
2022-08-25T15:13:49.229Z,30.10
2022-08-25T15:16:23.682Z,30.10
2022-08-25T15:19:01.465Z,30.10
2022-08-25T15:21:33.465Z,30.10
2022-08-25T15:24:00.578Z,30.00
2022-08-25T15:26:27.589Z,30.00
2022-08-25T15:28:54.649Z,30.00
2022-08-25T15:31:23.591Z,30.00
2022-08-25T15:33:51.431Z,30.00
2022-08-25T15:36:24.534Z,29.90
2022-08-25T15:38:52.633Z,29.90
2022-08-25T15:41:20.988Z,29.80
2022-08-25T15:43:51.651Z,29.70
2022-08-25T15:46:21.646Z,29.70
2022-08-25T15:48:48.548Z,29.70
2022-08-25T15:51:16.402Z,29.60
2022-08-25T15:53:43.838Z,29.60
2022-08-25T15:56:16.045Z,29.50
2022-08-25T15:58:55.481Z,29.50
2022-08-25T16:01:25.175Z,29.50
2022-08-25T16:03:52.842Z,29.50
2022-08-25T16:06:20.210Z,29.30
2022-08-25T16:08:47.635Z,29.30
2022-08-25T16:11:26.552Z,29.30
2022-08-25T16:13:55.502Z,29.30
2022-08-25T16:16:24.645Z,29.20
2022-08-25T16:18:52.639Z,29.20
2022-08-25T16:21:29.156Z,29.20
2022-08-25T16:24:01.904Z,29.10
2022-08-25T16:26:31.270Z,29.10
2022-08-25T16:28:58.456Z,29.10
2022-08-25T16:31:26.122Z,29.10
2022-08-25T16:33:56.048Z,29.00
2022-08-25T16:36:27.105Z,28.90
2022-08-25T16:38:56.978Z,28.90
2022-08-25T16:41:27.088Z,28.90
2022-08-25T16:43:54.492Z,28.80
2022-08-25T16:46:23.973Z,28.70
2022-08-25T16:48:51.011Z,28.70
2022-08-25T16:51:22.496Z,28.60
2022-08-25T16:54:10.867Z,28.50
2022-08-25T16:56:38.648Z,28.50
2022-08-25T16:59:06.649Z,28.50
2022-08-25T17:01:35.420Z,28.50
2022-08-25T17:04:03.862Z,28.40
2022-08-25T17:06:35.765Z,28.30
2022-08-25T17:09:03.819Z,28.20
2022-08-25T17:11:35.065Z,28.20
2022-08-25T17:14:04.642Z,28.10
2022-08-25T17:16:38.359Z,28.10
2022-08-25T17:19:08.211Z,28.10
2022-08-25T17:21:44.919Z,28.10
2022-08-25T17:24:13.257Z,28.20
2022-08-25T17:26:41.967Z,28.00
2022-08-25T17:29:09.577Z,28.00
2022-08-25T17:31:39.730Z,27.90
2022-08-25T17:34:10.435Z,27.90
2022-08-25T17:36:37.891Z,27.80
2022-08-25T17:39:08.972Z,27.80
2022-08-25T17:41:37.817Z,27.90
2022-08-25T17:44:05.395Z,27.80
2022-08-25T17:46:32.710Z,27.70
2022-08-25T17:48:59.535Z,27.60
2022-08-25T17:51:26.450Z,27.60
2022-08-25T17:53:57.181Z,27.40
2022-08-25T17:56:27.276Z,27.50
2022-08-25T17:58:58.112Z,27.50
2022-08-25T18:01:33.394Z,27.40
2022-08-25T18:04:00.944Z,27.20
2022-08-25T18:06:31.029Z,27.30
2022-08-25T18:09:00.128Z,27.30
2022-08-25T18:11:28.855Z,27.30
2022-08-25T18:13:57.254Z,27.10
2022-08-25T18:16:24.804Z,27.10
2022-08-25T18:18:52.786Z,27.00
2022-08-25T18:21:22.470Z,27.00
2022-08-25T18:23:49.654Z,26.90
2022-08-25T18:26:17.259Z,26.90
2022-08-25T18:28:48.927Z,26.90
2022-08-25T18:31:16.072Z,26.90
2022-08-25T18:33:47.334Z,26.90
2022-08-25T18:36:18.468Z,26.80
2022-08-25T18:39:04.471Z,26.80
2022-08-25T18:41:35.563Z,26.80
2022-08-25T18:44:03.047Z,26.80
2022-08-25T18:46:30.126Z,26.70
2022-08-25T18:48:57.063Z,26.70
2022-08-25T18:51:24.022Z,26.70
2022-08-25T18:53:54.673Z,26.60
2022-08-25T18:56:26.209Z,26.60
2022-08-25T18:58:53.222Z,26.60
2022-08-25T19:01:20.772Z,26.70
2022-08-25T19:03:48.723Z,26.60
2022-08-25T19:06:16.793Z,26.60
2022-08-25T19:08:45.261Z,26.50
2022-08-25T19:11:12.851Z,26.50
2022-08-25T19:13:41.696Z,26.50
2022-08-25T19:16:17.774Z,26.50
2022-08-25T19:18:47.717Z,26.40
2022-08-25T19:21:14.818Z,26.50
2022-08-25T19:23:41.956Z,26.50
2022-08-25T19:26:16.867Z,26.50
2022-08-25T19:28:48.833Z,26.30
2022-08-25T19:31:21.072Z,26.30
2022-08-25T19:33:53.310Z,26.20
2022-08-25T19:36:28.027Z,26.10
2022-08-25T19:38:58.702Z,26.00
2022-08-25T19:41:27.962Z,25.90
2022-08-25T19:43:57.660Z,25.80
2022-08-25T19:46:33.261Z,25.80
2022-08-25T19:49:08.815Z,25.70
2022-08-25T19:51:44.100Z,25.70
2022-08-25T19:54:16.808Z,25.70
2022-08-25T19:56:54.320Z,25.60
2022-08-25T19:59:42.269Z,25.70
2022-08-25T20:02:15.393Z,25.70
2022-08-25T20:04:47.955Z,25.60
2022-08-25T20:07:18.752Z,25.50
2022-08-25T20:09:45.768Z,25.50
2022-08-25T20:14:46.863Z,25.40
2022-08-25T20:17:23.532Z,25.30
2022-08-25T20:19:52.552Z,25.30
2022-08-25T20:22:22.513Z,25.30
2022-08-25T20:24:56.154Z,25.40
2022-08-25T20:27:27.892Z,25.40
2022-08-25T20:29:54.788Z,25.30
2022-08-25T20:32:22.681Z,25.30
2022-08-25T20:34:50.403Z,25.20
2022-08-25T20:37:18.684Z,25.20
2022-08-25T20:39:46.416Z,25.10
2022-08-25T20:42:13.979Z,25.00
2022-08-25T20:44:42.241Z,24.90
2022-08-25T20:47:10.465Z,24.90
2022-08-25T20:49:39.571Z,24.80
2022-08-25T20:52:07.607Z,24.90
2022-08-25T20:54:34.546Z,25.00
2022-08-25T20:57:02.514Z,25.00
2022-08-25T20:59:29.874Z,24.90
2022-08-25T21:01:57.070Z,24.80
2022-08-25T21:04:27.274Z,24.80
2022-08-25T21:06:54.191Z,24.80
2022-08-25T21:09:24.188Z,24.80
2022-08-25T21:11:53.729Z,24.70
2022-08-25T21:14:21.631Z,24.70
2022-08-25T21:16:49.181Z,24.70
2022-08-25T21:19:26.638Z,24.70
2022-08-25T21:21:59.664Z,24.50
2022-08-25T21:24:28.236Z,24.40
2022-08-25T21:26:57.354Z,24.40
2022-08-25T21:29:26.040Z,24.40
2022-08-25T21:31:56.496Z,24.40
2022-08-25T21:34:23.511Z,24.20
2022-08-25T21:36:51.042Z,24.30
2022-08-25T21:39:17.833Z,24.20
2022-08-25T21:41:45.484Z,24.10
2022-08-25T21:44:13.827Z,24.00
2022-08-25T21:46:41.421Z,23.90
2022-08-25T21:49:09.051Z,23.90
2022-08-25T21:51:42.538Z,23.80
2022-08-25T21:54:13.347Z,23.80
2022-08-25T21:56:55.074Z,23.70
2022-08-25T21:59:27.059Z,23.70
2022-08-25T22:01:59.210Z,23.70
2022-08-25T22:04:27.828Z,23.70
2022-08-25T22:06:54.777Z,23.60
2022-08-25T22:09:25.087Z,23.60
2022-08-25T22:11:54.714Z,23.50
2022-08-25T22:14:23.372Z,23.50
2022-08-25T22:16:52.002Z,23.40
2022-08-25T22:19:18.992Z,23.40
2022-08-25T22:21:46.080Z,23.40
2022-08-25T22:24:13.198Z,23.40
2022-08-25T22:26:40.450Z,23.40
2022-08-25T22:29:07.803Z,23.50
2022-08-25T22:31:35.315Z,23.40
2022-08-25T22:34:03.193Z,23.40
2022-08-25T22:36:34.907Z,23.40
2022-08-25T22:39:03.348Z,23.30
2022-08-25T22:41:31.531Z,23.30
2022-08-25T22:44:00.446Z,23.20
2022-08-25T22:46:32.852Z,23.20
2022-08-25T22:49:00.376Z,23.20
2022-08-25T22:51:31.445Z,23.20
2022-08-25T22:53:59.642Z,23.10
2022-08-25T22:56:31.845Z,23.20
2022-08-25T22:59:05.386Z,23.20
2022-08-25T23:01:33.044Z,23.10
2022-08-25T23:04:01.972Z,23.10
2022-08-25T23:06:29.572Z,23.10
2022-08-25T23:08:56.902Z,23.00
2022-08-25T23:11:24.946Z,23.10
2022-08-25T23:13:55.363Z,23.00
2022-08-25T23:16:22.280Z,23.10
2022-08-25T23:18:49.557Z,23.00
2022-08-25T23:21:38.185Z,22.90
2022-08-25T23:24:10.695Z,22.90
2022-08-25T23:26:42.480Z,22.80
2022-08-25T23:29:18.122Z,22.80
2022-08-25T23:31:47.728Z,22.80
2022-08-25T23:34:16.055Z,22.80
2022-08-25T23:36:43.891Z,22.70
2022-08-25T23:39:11.654Z,22.70
2022-08-25T23:41:39.022Z,22.70
2022-08-25T23:44:06.765Z,22.70
2022-08-25T23:46:36.243Z,22.60
2022-08-25T23:49:05.171Z,22.60
2022-08-25T23:51:37.995Z,22.70
2022-08-25T23:54:09.585Z,22.70
2022-08-25T23:56:42.288Z,22.60
2022-08-25T23:59:13.130Z,22.60
